Aérodrome :
LOGIN :

S'inscrire | Disclaimer

   EN    FR    IT 

 










Légende :    VFR   VFR Marginal   IFR   IFR Intensif   IFR Très Intensif
Visi : 
Plafond : 
>= 8 km
>= 3000ft
5 à 8 km
1000 à 3000 ft
1500m à 5 km
500 à 1000 ft
800 à 1500m
200 à 500 ft
< 800m
< 200 ft
Symboles :   Orages  Brouillard  Fortes neiges  Fortes précipitations  Vent > 20 kt
SIGMETs :   Divers  Orages  Givrage  Turbulence  Onde Orograph.  Cendres Volcan.






- Altitude de l'aérodrome : 370 ft


EBBE - Beauvechain AB

DERNIER METAR :
  • 170225Z AUTO 24018KT 9999 FEW034/// OVC180/// 08/03 Q1012 BLU

METARs EXPIRÉS :
  • 170155Z AUTO 25015G26KT 9999 FEW023/// SCT028/// BKN039/// 08/04 Q1012 BLU
  • 170125Z AUTO 23017KT 9999 FEW026/// BKN170/// 08/04 Q1011 BLU
  • 170055Z AUTO 23017KT 9999 FEW023/// SCT033/// OVC160/// 08/04 Q1010 BLU
  • 170053Z AUTO 23017KT 9999 FEW023/// SCT032/// OVC160/// 08/04 Q1010 BLU
  • 170025Z AUTO 23019KT 9999 SCT022/// BKN030/// BKN160/// 08/05 Q1010 WHT
  • 170018Z AUTO 23019KT 9999 SCT022/// BKN030/// OVC150/// 08/05 Q1009 WHT

Prévision TAF périmée.



MET'MAP, la Météo Aéronautique d'un coup d'oeil ! - Copyright ORBIFLY Décembre 2007 - Disclaimer

ORBIFLY MET'MAP TEAM :

Programmation & Développement : Alexandra Zaïnal
Sur une idée originale de : Baudouin d'Aumeries
Assistance à la programmation : Marc-Olivier Méhu
Soutien technique & logistique : Manuel Goepfert

Contact : metmap@orbifly.com




SOURCES & CREDITS :

   NOAA